sensor_id;sensor_type;location;lat;lon;timestamp;temperature;humidity
13328;DHT22;6733;51.044;3.746;2022-12-07T00:01:33;7.40;99.90
13328;DHT22;6733;51.044;3.746;2022-12-07T00:04:01;7.20;99.90
13328;DHT22;6733;51.044;3.746;2022-12-07T00:06:39;7.30;99.90
13328;DHT22;6733;51.044;3.746;2022-12-07T00:09:07;7.30;99.90
13328;DHT22;6733;51.044;3.746;2022-12-07T00:11:33;7.30;99.90
13328;DHT22;6733;51.044;3.746;2022-12-07T00:14:02;7.30;99.90
13328;DHT22;6733;51.044;3.746;2022-12-07T00:16:30;7.30;99.90
13328;DHT22;6733;51.044;3.746;2022-12-07T00:18:57;7.30;99.90
13328;DHT22;6733;51.044;3.746;2022-12-07T00:21:29;7.30;99.90
13328;DHT22;6733;51.044;3.746;2022-12-07T00:23:56;7.30;99.90
13328;DHT22;6733;51.044;3.746;2022-12-07T00:26:25;7.20;99.90
13328;DHT22;6733;51.044;3.746;2022-12-07T00:28:56;7.30;99.90
13328;DHT22;6733;51.044;3.746;2022-12-07T00:31:27;7.30;99.90
13328;DHT22;6733;51.044;3.746;2022-12-07T00:33:53;7.40;99.90
13328;DHT22;6733;51.044;3.746;2022-12-07T00:36:22;7.40;99.90
13328;DHT22;6733;51.044;3.746;2022-12-07T00:38:49;7.40;99.90
13328;DHT22;6733;51.044;3.746;2022-12-07T00:41:18;7.30;99.90
13328;DHT22;6733;51.044;3.746;2022-12-07T00:43:46;7.30;99.90
13328;DHT22;6733;51.044;3.746;2022-12-07T00:46:13;7.20;99.90
13328;DHT22;6733;51.044;3.746;2022-12-07T00:48:40;7.10;99.90
13328;DHT22;6733;51.044;3.746;2022-12-07T00:51:07;7.00;99.90
13328;DHT22;6733;51.044;3.746;2022-12-07T00:53:38;7.00;99.90
13328;DHT22;6733;51.044;3.746;2022-12-07T00:56:16;7.00;99.90
13328;DHT22;6733;51.044;3.746;2022-12-07T00:58:43;7.00;99.90
13328;DHT22;6733;51.044;3.746;2022-12-07T01:01:10;7.00;99.90
13328;DHT22;6733;51.044;3.746;2022-12-07T01:03:37;6.80;99.90
13328;DHT22;6733;51.044;3.746;2022-12-07T01:06:03;6.80;99.90
13328;DHT22;6733;51.044;3.746;2022-12-07T01:08:30;6.80;99.90
13328;DHT22;6733;51.044;3.746;2022-12-07T01:11:05;6.80;99.90
13328;DHT22;6733;51.044;3.746;2022-12-07T01:13:32;6.80;99.90
13328;DHT22;6733;51.044;3.746;2022-12-07T01:16:01;6.80;99.90
13328;DHT22;6733;51.044;3.746;2022-12-07T01:18:29;6.80;99.90
13328;DHT22;6733;51.044;3.746;2022-12-07T01:21:45;6.80;99.90
13328;DHT22;6733;51.044;3.746;2022-12-07T01:23:52;6.70;99.90
13328;DHT22;6733;51.044;3.746;2022-12-07T01:26:21;6.70;99.90
13328;DHT22;6733;51.044;3.746;2022-12-07T01:28:48;6.60;99.90
13328;DHT22;6733;51.044;3.746;2022-12-07T01:31:17;6.60;99.90
13328;DHT22;6733;51.044;3.746;2022-12-07T01:33:46;6.60;99.90
13328;DHT22;6733;51.044;3.746;2022-12-07T01:36:25;6.60;99.90
13328;DHT22;6733;51.044;3.746;2022-12-07T01:38:55;6.60;99.90
13328;DHT22;6733;51.044;3.746;2022-12-07T01:41:23;6.60;99.90
13328;DHT22;6733;51.044;3.746;2022-12-07T01:46:54;6.70;99.90
13328;DHT22;6733;51.044;3.746;2022-12-07T01:49:41;6.80;99.90
13328;DHT22;6733;51.044;3.746;2022-12-07T01:54:50;6.70;99.90
13328;DHT22;6733;51.044;3.746;2022-12-07T01:57:17;6.70;99.90
13328;DHT22;6733;51.044;3.746;2022-12-07T01:59:45;6.70;99.90
13328;DHT22;6733;51.044;3.746;2022-12-07T02:02:33;6.70;99.90
13328;DHT22;6733;51.044;3.746;2022-12-07T02:05:01;6.50;99.90
13328;DHT22;6733;51.044;3.746;2022-12-07T02:07:29;6.50;99.90
13328;DHT22;6733;51.044;3.746;2022-12-07T02:09:55;6.40;99.90
13328;DHT22;6733;51.044;3.746;2022-12-07T02:12:23;6.40;99.90
13328;DHT22;6733;51.044;3.746;2022-12-07T02:14:51;6.30;99.90
13328;DHT22;6733;51.044;3.746;2022-12-07T02:17:48;6.40;99.90
13328;DHT22;6733;51.044;3.746;2022-12-07T02:23:38;6.30;99.90
13328;DHT22;6733;51.044;3.746;2022-12-07T02:29:22;6.30;99.90
13328;DHT22;6733;51.044;3.746;2022-12-07T02:31:59;6.30;99.90
13328;DHT22;6733;51.044;3.746;2022-12-07T02:34:43;6.30;99.90
13328;DHT22;6733;51.044;3.746;2022-12-07T02:37:44;6.30;99.90
13328;DHT22;6733;51.044;3.746;2022-12-07T02:43:57;6.30;99.90
13328;DHT22;6733;51.044;3.746;2022-12-07T02:47:05;6.40;99.90
13328;DHT22;6733;51.044;3.746;2022-12-07T02:50:02;6.50;99.90
13328;DHT22;6733;51.044;3.746;2022-12-07T02:52:28;6.60;99.90
13328;DHT22;6733;51.044;3.746;2022-12-07T02:54:54;6.60;99.90
13328;DHT22;6733;51.044;3.746;2022-12-07T02:57:40;6.60;99.90
13328;DHT22;6733;51.044;3.746;2022-12-07T03:00:09;6.60;99.90
13328;DHT22;6733;51.044;3.746;2022-12-07T03:02:46;6.60;99.90
13328;DHT22;6733;51.044;3.746;2022-12-07T03:05:31;6.60;99.90
13328;DHT22;6733;51.044;3.746;2022-12-07T03:11:04;6.70;99.90
13328;DHT22;6733;51.044;3.746;2022-12-07T03:13:54;6.80;99.90
13328;DHT22;6733;51.044;3.746;2022-12-07T03:16:30;6.70;99.90
13328;DHT22;6733;51.044;3.746;2022-12-07T03:19:10;6.70;99.90
13328;DHT22;6733;51.044;3.746;2022-12-07T03:21:40;6.80;99.90
13328;DHT22;6733;51.044;3.746;2022-12-07T03:24:16;6.70;99.90
13328;DHT22;6733;51.044;3.746;2022-12-07T03:26:52;6.70;99.90
13328;DHT22;6733;51.044;3.746;2022-12-07T03:29:31;6.60;99.90
13328;DHT22;6733;51.044;3.746;2022-12-07T03:32:08;6.60;99.90
13328;DHT22;6733;51.044;3.746;2022-12-07T03:34:52;6.50;99.90
13328;DHT22;6733;51.044;3.746;2022-12-07T03:40:22;6.40;99.90
13328;DHT22;6733;51.044;3.746;2022-12-07T03:42:51;6.40;99.90
13328;DHT22;6733;51.044;3.746;2022-12-07T03:45:19;6.30;99.90
13328;DHT22;6733;51.044;3.746;2022-12-07T03:50:55;6.20;99.90
13328;DHT22;6733;51.044;3.746;2022-12-07T03:53:40;6.20;99.90
13328;DHT22;6733;51.044;3.746;2022-12-07T03:56:10;6.10;99.90
13328;DHT22;6733;51.044;3.746;2022-12-07T03:58:37;6.10;99.90
13328;DHT22;6733;51.044;3.746;2022-12-07T04:01:04;6.10;99.90
13328;DHT22;6733;51.044;3.746;2022-12-07T04:03:30;6.00;99.90
13328;DHT22;6733;51.044;3.746;2022-12-07T04:05:56;6.00;99.90
13328;DHT22;6733;51.044;3.746;2022-12-07T04:08:24;5.90;99.90
13328;DHT22;6733;51.044;3.746;2022-12-07T04:10:50;5.90;99.90
13328;DHT22;6733;51.044;3.746;2022-12-07T04:13:16;5.90;99.90
13328;DHT22;6733;51.044;3.746;2022-12-07T04:15:43;6.00;99.90
13328;DHT22;6733;51.044;3.746;2022-12-07T04:18:09;6.00;99.90
13328;DHT22;6733;51.044;3.746;2022-12-07T04:20:35;6.00;99.90
13328;DHT22;6733;51.044;3.746;2022-12-07T04:23:01;6.10;99.90
13328;DHT22;6733;51.044;3.746;2022-12-07T04:25:27;6.10;99.90
13328;DHT22;6733;51.044;3.746;2022-12-07T04:27:53;6.10;99.90
13328;DHT22;6733;51.044;3.746;2022-12-07T04:30:19;6.20;99.90
13328;DHT22;6733;51.044;3.746;2022-12-07T04:32:45;6.20;99.90
13328;DHT22;6733;51.044;3.746;2022-12-07T04:35:11;6.20;99.90
13328;DHT22;6733;51.044;3.746;2022-12-07T04:37:38;6.20;99.90
13328;DHT22;6733;51.044;3.746;2022-12-07T04:40:08;6.20;99.90
13328;DHT22;6733;51.044;3.746;2022-12-07T04:42:37;6.20;99.90
13328;DHT22;6733;51.044;3.746;2022-12-07T04:45:03;6.10;99.90
13328;DHT22;6733;51.044;3.746;2022-12-07T04:47:30;6.10;99.90
13328;DHT22;6733;51.044;3.746;2022-12-07T04:49:56;6.10;99.90
13328;DHT22;6733;51.044;3.746;2022-12-07T04:52:22;6.20;99.90
13328;DHT22;6733;51.044;3.746;2022-12-07T04:54:48;6.30;99.90
13328;DHT22;6733;51.044;3.746;2022-12-07T04:57:14;6.20;99.90
13328;DHT22;6733;51.044;3.746;2022-12-07T04:59:40;6.20;99.90
13328;DHT22;6733;51.044;3.746;2022-12-07T05:02:06;6.30;99.90
13328;DHT22;6733;51.044;3.746;2022-12-07T05:04:32;6.30;99.90
13328;DHT22;6733;51.044;3.746;2022-12-07T05:06:58;6.50;99.90
13328;DHT22;6733;51.044;3.746;2022-12-07T05:09:25;6.60;99.90
13328;DHT22;6733;51.044;3.746;2022-12-07T05:11:51;6.60;99.90
13328;DHT22;6733;51.044;3.746;2022-12-07T05:14:20;6.70;99.90
13328;DHT22;6733;51.044;3.746;2022-12-07T05:16:48;6.70;99.90
13328;DHT22;6733;51.044;3.746;2022-12-07T05:19:16;6.70;99.90
13328;DHT22;6733;51.044;3.746;2022-12-07T05:21:42;6.70;99.90
13328;DHT22;6733;51.044;3.746;2022-12-07T05:24:11;6.70;99.90
13328;DHT22;6733;51.044;3.746;2022-12-07T05:26:37;6.60;99.90
13328;DHT22;6733;51.044;3.746;2022-12-07T05:29:03;6.60;99.90
13328;DHT22;6733;51.044;3.746;2022-12-07T05:31:30;6.60;99.90
13328;DHT22;6733;51.044;3.746;2022-12-07T05:33:56;6.50;99.90
13328;DHT22;6733;51.044;3.746;2022-12-07T05:36:22;6.40;99.90
13328;DHT22;6733;51.044;3.746;2022-12-07T05:38:49;6.40;99.90
13328;DHT22;6733;51.044;3.746;2022-12-07T05:41:17;6.30;99.90
13328;DHT22;6733;51.044;3.746;2022-12-07T05:44:03;6.20;99.90
13328;DHT22;6733;51.044;3.746;2022-12-07T05:46:30;6.20;99.90
13328;DHT22;6733;51.044;3.746;2022-12-07T05:48:56;6.20;99.90
13328;DHT22;6733;51.044;3.746;2022-12-07T05:51:22;6.10;99.90
13328;DHT22;6733;51.044;3.746;2022-12-07T05:53:48;6.10;99.90
13328;DHT22;6733;51.044;3.746;2022-12-07T05:56:15;6.10;99.90
13328;DHT22;6733;51.044;3.746;2022-12-07T05:58:41;6.10;99.90
13328;DHT22;6733;51.044;3.746;2022-12-07T06:01:25;6.10;99.90
13328;DHT22;6733;51.044;3.746;2022-12-07T06:03:52;6.20;99.90
13328;DHT22;6733;51.044;3.746;2022-12-07T06:06:18;6.20;99.90
13328;DHT22;6733;51.044;3.746;2022-12-07T06:08:44;6.30;99.90
13328;DHT22;6733;51.044;3.746;2022-12-07T06:11:10;6.40;99.90
13328;DHT22;6733;51.044;3.746;2022-12-07T06:13:55;6.40;99.90
13328;DHT22;6733;51.044;3.746;2022-12-07T06:16:21;6.40;99.90
13328;DHT22;6733;51.044;3.746;2022-12-07T06:18:47;6.40;99.90
13328;DHT22;6733;51.044;3.746;2022-12-07T06:21:13;6.40;99.90
13328;DHT22;6733;51.044;3.746;2022-12-07T06:23:40;6.40;99.90
13328;DHT22;6733;51.044;3.746;2022-12-07T06:26:06;6.40;99.90
13328;DHT22;6733;51.044;3.746;2022-12-07T06:28:32;6.40;99.90
13328;DHT22;6733;51.044;3.746;2022-12-07T06:30:59;6.40;99.90
13328;DHT22;6733;51.044;3.746;2022-12-07T06:33:26;6.20;99.90
13328;DHT22;6733;51.044;3.746;2022-12-07T06:35:52;6.20;99.90
13328;DHT22;6733;51.044;3.746;2022-12-07T06:38:19;6.10;99.90
13328;DHT22;6733;51.044;3.746;2022-12-07T06:40:45;6.20;99.90
13328;DHT22;6733;51.044;3.746;2022-12-07T06:43:11;6.20;99.90
13328;DHT22;6733;51.044;3.746;2022-12-07T06:45:37;6.20;99.90
13328;DHT22;6733;51.044;3.746;2022-12-07T06:48:03;6.30;99.90
13328;DHT22;6733;51.044;3.746;2022-12-07T06:50:29;6.30;99.90
13328;DHT22;6733;51.044;3.746;2022-12-07T06:52:55;6.40;99.90
13328;DHT22;6733;51.044;3.746;2022-12-07T06:55:21;6.40;99.90
13328;DHT22;6733;51.044;3.746;2022-12-07T06:57:48;6.50;99.90
13328;DHT22;6733;51.044;3.746;2022-12-07T07:00:14;6.50;99.90
13328;DHT22;6733;51.044;3.746;2022-12-07T07:02:40;6.50;99.90
13328;DHT22;6733;51.044;3.746;2022-12-07T07:05:07;6.40;99.90
13328;DHT22;6733;51.044;3.746;2022-12-07T07:07:33;6.40;99.90
13328;DHT22;6733;51.044;3.746;2022-12-07T07:09:59;6.40;99.90
13328;DHT22;6733;51.044;3.746;2022-12-07T07:12:25;6.50;99.90
13328;DHT22;6733;51.044;3.746;2022-12-07T07:14:52;6.50;99.90
13328;DHT22;6733;51.044;3.746;2022-12-07T07:17:18;6.50;99.90
13328;DHT22;6733;51.044;3.746;2022-12-07T07:19:44;6.50;99.90
13328;DHT22;6733;51.044;3.746;2022-12-07T07:22:10;6.50;99.90
13328;DHT22;6733;51.044;3.746;2022-12-07T07:24:36;6.50;99.90
13328;DHT22;6733;51.044;3.746;2022-12-07T07:27:03;6.60;99.90
13328;DHT22;6733;51.044;3.746;2022-12-07T07:29:29;6.60;99.90
13328;DHT22;6733;51.044;3.746;2022-12-07T07:31:55;6.50;99.90
13328;DHT22;6733;51.044;3.746;2022-12-07T07:34:21;6.40;99.90
13328;DHT22;6733;51.044;3.746;2022-12-07T07:36:47;6.40;99.90
13328;DHT22;6733;51.044;3.746;2022-12-07T07:39:13;6.30;99.90
13328;DHT22;6733;51.044;3.746;2022-12-07T07:41:39;6.30;99.90
13328;DHT22;6733;51.044;3.746;2022-12-07T07:44:05;6.40;99.90
13328;DHT22;6733;51.044;3.746;2022-12-07T07:46:31;6.40;99.90
13328;DHT22;6733;51.044;3.746;2022-12-07T07:48:59;6.30;99.90
13328;DHT22;6733;51.044;3.746;2022-12-07T07:51:25;6.30;99.90
13328;DHT22;6733;51.044;3.746;2022-12-07T07:53:51;6.30;99.90
13328;DHT22;6733;51.044;3.746;2022-12-07T07:56:17;6.20;99.90
13328;DHT22;6733;51.044;3.746;2022-12-07T07:58:43;6.10;99.90
13328;DHT22;6733;51.044;3.746;2022-12-07T08:01:09;6.10;99.90
13328;DHT22;6733;51.044;3.746;2022-12-07T08:03:35;6.00;99.90
13328;DHT22;6733;51.044;3.746;2022-12-07T08:06:03;5.70;99.90
13328;DHT22;6733;51.044;3.746;2022-12-07T08:08:29;5.70;99.90
13328;DHT22;6733;51.044;3.746;2022-12-07T08:10:55;5.60;99.90
13328;DHT22;6733;51.044;3.746;2022-12-07T08:13:21;5.50;99.90
13328;DHT22;6733;51.044;3.746;2022-12-07T08:15:48;5.40;99.90
13328;DHT22;6733;51.044;3.746;2022-12-07T08:18:15;5.40;99.90
13328;DHT22;6733;51.044;3.746;2022-12-07T08:20:42;5.30;99.90
13328;DHT22;6733;51.044;3.746;2022-12-07T08:23:08;5.20;99.90
13328;DHT22;6733;51.044;3.746;2022-12-07T08:25:34;5.20;99.90
13328;DHT22;6733;51.044;3.746;2022-12-07T08:28:01;5.30;99.90
13328;DHT22;6733;51.044;3.746;2022-12-07T08:30:28;5.30;99.90
13328;DHT22;6733;51.044;3.746;2022-12-07T08:32:54;5.30;99.90
13328;DHT22;6733;51.044;3.746;2022-12-07T08:35:21;5.20;99.90
13328;DHT22;6733;51.044;3.746;2022-12-07T08:37:47;5.30;99.90
13328;DHT22;6733;51.044;3.746;2022-12-07T08:40:14;5.40;99.90
13328;DHT22;6733;51.044;3.746;2022-12-07T08:42:51;5.40;99.90
13328;DHT22;6733;51.044;3.746;2022-12-07T08:45:18;5.40;99.90
13328;DHT22;6733;51.044;3.746;2022-12-07T08:48:13;5.50;99.90
13328;DHT22;6733;51.044;3.746;2022-12-07T08:51:08;5.40;99.90
13328;DHT22;6733;51.044;3.746;2022-12-07T08:54:06;5.50;99.90
13328;DHT22;6733;51.044;3.746;2022-12-07T08:57:29;5.60;99.90
13328;DHT22;6733;51.044;3.746;2022-12-07T09:00:28;5.60;99.90
13328;DHT22;6733;51.044;3.746;2022-12-07T09:02:54;5.70;99.90
13328;DHT22;6733;51.044;3.746;2022-12-07T09:05:20;5.70;99.90
13328;DHT22;6733;51.044;3.746;2022-12-07T09:07:50;5.70;99.90
13328;DHT22;6733;51.044;3.746;2022-12-07T09:10:17;5.80;99.90
13328;DHT22;6733;51.044;3.746;2022-12-07T09:12:43;5.80;99.90
13328;DHT22;6733;51.044;3.746;2022-12-07T09:15:09;5.90;99.90
13328;DHT22;6733;51.044;3.746;2022-12-07T09:17:35;6.10;99.90
13328;DHT22;6733;51.044;3.746;2022-12-07T09:20:04;6.10;99.90
13328;DHT22;6733;51.044;3.746;2022-12-07T09:22:30;6.30;99.90
13328;DHT22;6733;51.044;3.746;2022-12-07T09:25:00;6.40;99.90
13328;DHT22;6733;51.044;3.746;2022-12-07T09:27:26;6.50;99.90
13328;DHT22;6733;51.044;3.746;2022-12-07T09:29:53;6.60;99.90
13328;DHT22;6733;51.044;3.746;2022-12-07T09:32:19;6.60;99.90
13328;DHT22;6733;51.044;3.746;2022-12-07T09:34:45;6.50;99.90
13328;DHT22;6733;51.044;3.746;2022-12-07T09:37:11;6.40;99.90
13328;DHT22;6733;51.044;3.746;2022-12-07T09:39:38;6.40;99.90
13328;DHT22;6733;51.044;3.746;2022-12-07T09:42:06;6.40;99.90
13328;DHT22;6733;51.044;3.746;2022-12-07T09:44:34;6.30;99.90
13328;DHT22;6733;51.044;3.746;2022-12-07T09:47:01;6.30;99.90
13328;DHT22;6733;51.044;3.746;2022-12-07T09:49:29;6.40;99.90
13328;DHT22;6733;51.044;3.746;2022-12-07T09:54:42;6.30;99.90
13328;DHT22;6733;51.044;3.746;2022-12-07T09:57:11;6.30;99.90
13328;DHT22;6733;51.044;3.746;2022-12-07T09:59:39;6.30;99.90
13328;DHT22;6733;51.044;3.746;2022-12-07T10:04:50;6.30;99.90
13328;DHT22;6733;51.044;3.746;2022-12-07T10:07:17;6.40;99.90
13328;DHT22;6733;51.044;3.746;2022-12-07T10:09:43;6.40;99.90
13328;DHT22;6733;51.044;3.746;2022-12-07T10:12:11;6.40;99.90
13328;DHT22;6733;51.044;3.746;2022-12-07T10:14:40;6.30;99.90
13328;DHT22;6733;51.044;3.746;2022-12-07T10:17:39;6.30;99.90
13328;DHT22;6733;51.044;3.746;2022-12-07T10:20:26;6.20;99.90
13328;DHT22;6733;51.044;3.746;2022-12-07T10:23:03;6.30;99.90
13328;DHT22;6733;51.044;3.746;2022-12-07T10:25:33;6.30;99.90
13328;DHT22;6733;51.044;3.746;2022-12-07T10:30:33;6.30;99.90
13328;DHT22;6733;51.044;3.746;2022-12-07T10:33:30;6.40;99.90
13328;DHT22;6733;51.044;3.746;2022-12-07T10:35:57;6.30;99.90
13328;DHT22;6733;51.044;3.746;2022-12-07T10:38:25;6.50;99.90
13328;DHT22;6733;51.044;3.746;2022-12-07T10:41:06;6.70;99.90
13328;DHT22;6733;51.044;3.746;2022-12-07T10:43:33;6.80;99.90
13328;DHT22;6733;51.044;3.746;2022-12-07T10:51:40;7.20;99.90
13328;DHT22;6733;51.044;3.746;2022-12-07T11:00:21;7.20;99.90
13328;DHT22;6733;51.044;3.746;2022-12-07T11:06:08;7.10;99.90
13328;DHT22;6733;51.044;3.746;2022-12-07T11:09:00;7.00;99.90
13328;DHT22;6733;51.044;3.746;2022-12-07T11:11:41;6.90;99.90
13328;DHT22;6733;51.044;3.746;2022-12-07T11:14:25;6.90;99.90
13328;DHT22;6733;51.044;3.746;2022-12-07T11:16:59;6.90;99.90
13328;DHT22;6733;51.044;3.746;2022-12-07T11:19:45;6.80;99.90
13328;DHT22;6733;51.044;3.746;2022-12-07T11:25:31;7.00;99.90
13328;DHT22;6733;51.044;3.746;2022-12-07T11:28:11;7.10;99.90
13328;DHT22;6733;51.044;3.746;2022-12-07T11:33:36;7.30;99.90
13328;DHT22;6733;51.044;3.746;2022-12-07T11:39:02;7.30;99.90
13328;DHT22;6733;51.044;3.746;2022-12-07T11:41:35;7.20;99.90
13328;DHT22;6733;51.044;3.746;2022-12-07T11:44:49;7.20;99.90
13328;DHT22;6733;51.044;3.746;2022-12-07T11:47:07;7.30;99.90
13328;DHT22;6733;51.044;3.746;2022-12-07T11:52:43;7.40;99.90
13328;DHT22;6733;51.044;3.746;2022-12-07T11:55:06;7.50;99.90
13328;DHT22;6733;51.044;3.746;2022-12-07T11:57:43;7.70;99.90
13328;DHT22;6733;51.044;3.746;2022-12-07T12:00:18;7.70;99.90
13328;DHT22;6733;51.044;3.746;2022-12-07T12:03:28;7.80;99.90
13328;DHT22;6733;51.044;3.746;2022-12-07T12:05:56;7.90;99.90
13328;DHT22;6733;51.044;3.746;2022-12-07T12:08:36;8.00;99.90
13328;DHT22;6733;51.044;3.746;2022-12-07T12:19:36;7.60;99.90
13328;DHT22;6733;51.044;3.746;2022-12-07T12:24:41;7.60;99.90
13328;DHT22;6733;51.044;3.746;2022-12-07T12:27:23;7.70;99.90
13328;DHT22;6733;51.044;3.746;2022-12-07T12:29:56;7.70;99.90
13328;DHT22;6733;51.044;3.746;2022-12-07T12:35:19;7.40;99.90
13328;DHT22;6733;51.044;3.746;2022-12-07T12:37:47;7.40;99.90
13328;DHT22;6733;51.044;3.746;2022-12-07T12:45:20;7.20;99.90
13328;DHT22;6733;51.044;3.746;2022-12-07T12:50:33;7.40;99.90
13328;DHT22;6733;51.044;3.746;2022-12-07T12:53:15;7.60;99.90
13328;DHT22;6733;51.044;3.746;2022-12-07T12:58:22;7.60;99.90
13328;DHT22;6733;51.044;3.746;2022-12-07T13:03:57;7.70;99.90
13328;DHT22;6733;51.044;3.746;2022-12-07T13:08:55;8.00;99.90
13328;DHT22;6733;51.044;3.746;2022-12-07T13:11:30;8.00;99.90
13328;DHT22;6733;51.044;3.746;2022-12-07T13:17:01;7.90;99.90
13328;DHT22;6733;51.044;3.746;2022-12-07T13:24:58;8.00;99.90
13328;DHT22;6733;51.044;3.746;2022-12-07T13:27:26;8.00;99.90
13328;DHT22;6733;51.044;3.746;2022-12-07T13:29:56;7.90;99.90
13328;DHT22;6733;51.044;3.746;2022-12-07T13:32:28;7.90;99.90
13328;DHT22;6733;51.044;3.746;2022-12-07T13:34:55;7.90;99.90
13328;DHT22;6733;51.044;3.746;2022-12-07T13:37:32;7.80;99.90
13328;DHT22;6733;51.044;3.746;2022-12-07T13:40:12;7.80;99.90
13328;DHT22;6733;51.044;3.746;2022-12-07T13:42:44;7.80;99.90
13328;DHT22;6733;51.044;3.746;2022-12-07T13:45:33;7.80;99.90
13328;DHT22;6733;51.044;3.746;2022-12-07T13:51:26;7.70;99.90
13328;DHT22;6733;51.044;3.746;2022-12-07T13:54:00;7.80;99.90
13328;DHT22;6733;51.044;3.746;2022-12-07T13:56:31;7.90;99.90
13328;DHT22;6733;51.044;3.746;2022-12-07T13:58:59;7.90;99.90
13328;DHT22;6733;51.044;3.746;2022-12-07T14:01:25;7.80;99.90
13328;DHT22;6733;51.044;3.746;2022-12-07T14:03:52;7.80;99.90
13328;DHT22;6733;51.044;3.746;2022-12-07T14:06:26;7.90;99.90
13328;DHT22;6733;51.044;3.746;2022-12-07T14:09:22;7.90;99.90
13328;DHT22;6733;51.044;3.746;2022-12-07T14:11:50;7.70;99.90
13328;DHT22;6733;51.044;3.746;2022-12-07T14:14:28;7.80;99.90
13328;DHT22;6733;51.044;3.746;2022-12-07T14:17:15;7.90;99.90
13328;DHT22;6733;51.044;3.746;2022-12-07T14:19:50;7.80;99.90
13328;DHT22;6733;51.044;3.746;2022-12-07T14:22:23;7.80;99.90
13328;DHT22;6733;51.044;3.746;2022-12-07T14:24:50;7.70;99.90
13328;DHT22;6733;51.044;3.746;2022-12-07T14:27:21;7.60;99.90
13328;DHT22;6733;51.044;3.746;2022-12-07T14:29:48;7.60;99.90
13328;DHT22;6733;51.044;3.746;2022-12-07T14:32:24;7.70;99.90
13328;DHT22;6733;51.044;3.746;2022-12-07T14:35:07;7.60;99.90
13328;DHT22;6733;51.044;3.746;2022-12-07T14:37:37;7.50;99.90
13328;DHT22;6733;51.044;3.746;2022-12-07T14:40:04;7.40;99.90
13328;DHT22;6733;51.044;3.746;2022-12-07T14:42:31;7.60;99.90
13328;DHT22;6733;51.044;3.746;2022-12-07T14:44:58;7.40;99.90
13328;DHT22;6733;51.044;3.746;2022-12-07T14:47:26;7.40;99.90
13328;DHT22;6733;51.044;3.746;2022-12-07T14:49:52;7.20;99.90
13328;DHT22;6733;51.044;3.746;2022-12-07T14:52:28;7.20;99.90
13328;DHT22;6733;51.044;3.746;2022-12-07T14:54:55;7.20;99.90
13328;DHT22;6733;51.044;3.746;2022-12-07T14:57:23;7.20;99.90
13328;DHT22;6733;51.044;3.746;2022-12-07T14:59:49;7.10;99.90
13328;DHT22;6733;51.044;3.746;2022-12-07T15:02:15;7.10;99.90
13328;DHT22;6733;51.044;3.746;2022-12-07T15:04:41;7.00;99.90
13328;DHT22;6733;51.044;3.746;2022-12-07T15:07:19;7.00;99.90
13328;DHT22;6733;51.044;3.746;2022-12-07T15:09:46;6.90;99.90
13328;DHT22;6733;51.044;3.746;2022-12-07T15:12:12;7.00;99.90
13328;DHT22;6733;51.044;3.746;2022-12-07T15:14:39;7.00;99.90
13328;DHT22;6733;51.044;3.746;2022-12-07T15:17:05;7.00;99.90
13328;DHT22;6733;51.044;3.746;2022-12-07T15:19:31;6.90;99.90
13328;DHT22;6733;51.044;3.746;2022-12-07T15:21:58;6.90;99.90
13328;DHT22;6733;51.044;3.746;2022-12-07T15:24:26;6.80;99.90
13328;DHT22;6733;51.044;3.746;2022-12-07T15:26:53;6.80;99.90
13328;DHT22;6733;51.044;3.746;2022-12-07T15:29:19;6.60;99.90
13328;DHT22;6733;51.044;3.746;2022-12-07T15:31:45;6.60;99.90
13328;DHT22;6733;51.044;3.746;2022-12-07T15:34:11;6.60;99.90
13328;DHT22;6733;51.044;3.746;2022-12-07T15:36:37;6.50;99.90
13328;DHT22;6733;51.044;3.746;2022-12-07T15:39:03;6.40;99.90
13328;DHT22;6733;51.044;3.746;2022-12-07T15:41:30;6.50;99.90
13328;DHT22;6733;51.044;3.746;2022-12-07T15:43:56;6.40;99.90
13328;DHT22;6733;51.044;3.746;2022-12-07T15:46:41;6.40;99.90
13328;DHT22;6733;51.044;3.746;2022-12-07T15:49:16;6.30;99.90
13328;DHT22;6733;51.044;3.746;2022-12-07T15:51:44;6.30;99.90
13328;DHT22;6733;51.044;3.746;2022-12-07T15:54:19;6.20;99.90
13328;DHT22;6733;51.044;3.746;2022-12-07T15:56:46;6.30;99.90
13328;DHT22;6733;51.044;3.746;2022-12-07T15:59:12;6.30;99.90
13328;DHT22;6733;51.044;3.746;2022-12-07T16:01:38;6.30;99.90
13328;DHT22;6733;51.044;3.746;2022-12-07T16:04:04;6.30;99.90
13328;DHT22;6733;51.044;3.746;2022-12-07T16:06:31;6.40;99.90
13328;DHT22;6733;51.044;3.746;2022-12-07T16:08:57;6.40;99.90
13328;DHT22;6733;51.044;3.746;2022-12-07T16:11:23;6.40;99.90
13328;DHT22;6733;51.044;3.746;2022-12-07T16:13:49;6.50;99.90
13328;DHT22;6733;51.044;3.746;2022-12-07T16:16:17;6.50;99.90
13328;DHT22;6733;51.044;3.746;2022-12-07T16:18:44;6.60;99.90
13328;DHT22;6733;51.044;3.746;2022-12-07T16:21:12;6.60;99.90
13328;DHT22;6733;51.044;3.746;2022-12-07T16:23:38;6.70;99.90
13328;DHT22;6733;51.044;3.746;2022-12-07T16:26:16;6.70;99.90
13328;DHT22;6733;51.044;3.746;2022-12-07T16:28:43;6.70;99.90
13328;DHT22;6733;51.044;3.746;2022-12-07T16:31:14;6.80;99.90
13328;DHT22;6733;51.044;3.746;2022-12-07T16:33:42;6.70;99.90
13328;DHT22;6733;51.044;3.746;2022-12-07T16:36:10;6.70;99.90
13328;DHT22;6733;51.044;3.746;2022-12-07T16:38:37;6.70;99.90
13328;DHT22;6733;51.044;3.746;2022-12-07T16:41:05;6.70;99.90
13328;DHT22;6733;51.044;3.746;2022-12-07T16:43:32;6.80;99.90
13328;DHT22;6733;51.044;3.746;2022-12-07T16:45:58;7.00;99.90
13328;DHT22;6733;51.044;3.746;2022-12-07T16:48:24;7.10;99.90
13328;DHT22;6733;51.044;3.746;2022-12-07T16:50:50;7.10;99.90
13328;DHT22;6733;51.044;3.746;2022-12-07T16:53:20;7.20;99.90
13328;DHT22;6733;51.044;3.746;2022-12-07T16:55:48;7.30;99.90
13328;DHT22;6733;51.044;3.746;2022-12-07T16:58:15;7.30;99.90
13328;DHT22;6733;51.044;3.746;2022-12-07T17:00:42;7.30;99.90
13328;DHT22;6733;51.044;3.746;2022-12-07T17:03:09;7.30;99.90
13328;DHT22;6733;51.044;3.746;2022-12-07T17:05:40;7.20;99.90
13328;DHT22;6733;51.044;3.746;2022-12-07T17:08:07;7.30;99.90
13328;DHT22;6733;51.044;3.746;2022-12-07T17:10:36;7.30;99.90
13328;DHT22;6733;51.044;3.746;2022-12-07T17:13:06;7.30;99.90
13328;DHT22;6733;51.044;3.746;2022-12-07T17:16:03;7.40;99.90
13328;DHT22;6733;51.044;3.746;2022-12-07T17:18:31;7.40;99.90
13328;DHT22;6733;51.044;3.746;2022-12-07T17:21:06;7.40;99.90
13328;DHT22;6733;51.044;3.746;2022-12-07T17:23:33;7.50;99.90
13328;DHT22;6733;51.044;3.746;2022-12-07T17:28:33;7.30;99.90
13328;DHT22;6733;51.044;3.746;2022-12-07T17:31:00;7.20;99.90
13328;DHT22;6733;51.044;3.746;2022-12-07T17:33:26;7.10;99.90
13328;DHT22;6733;51.044;3.746;2022-12-07T17:35:52;7.00;99.90
13328;DHT22;6733;51.044;3.746;2022-12-07T17:38:18;6.80;99.90
13328;DHT22;6733;51.044;3.746;2022-12-07T17:40:44;6.80;99.90
13328;DHT22;6733;51.044;3.746;2022-12-07T17:43:10;6.70;99.90
13328;DHT22;6733;51.044;3.746;2022-12-07T17:45:36;6.60;99.90
13328;DHT22;6733;51.044;3.746;2022-12-07T17:48:04;6.60;99.90
13328;DHT22;6733;51.044;3.746;2022-12-07T17:50:30;6.50;99.90
13328;DHT22;6733;51.044;3.746;2022-12-07T17:53:15;6.50;99.90
13328;DHT22;6733;51.044;3.746;2022-12-07T17:55:41;6.40;99.90
13328;DHT22;6733;51.044;3.746;2022-12-07T17:58:07;6.40;99.90
13328;DHT22;6733;51.044;3.746;2022-12-07T18:00:33;6.40;99.90
13328;DHT22;6733;51.044;3.746;2022-12-07T18:03:05;6.30;99.90
13328;DHT22;6733;51.044;3.746;2022-12-07T18:05:32;6.30;99.90
13328;DHT22;6733;51.044;3.746;2022-12-07T18:07:58;6.20;99.90